sensor_id;sensor_type;location;lat;lon;timestamp;P1;durP1;ratioP1;P2;durP2;ratioP2
50759;SDS011;36733;48.442;-4.470;2023-07-22T00:00:53;3.13;;;2.20;;
50759;SDS011;36733;48.442;-4.470;2023-07-22T00:03:18;4.10;;;2.47;;
50759;SDS011;36733;48.442;-4.470;2023-07-22T00:05:44;2.60;;;2.10;;
50759;SDS011;36733;48.442;-4.470;2023-07-22T00:08:09;7.53;;;2.53;;
50759;SDS011;36733;48.442;-4.470;2023-07-22T00:10:35;6.87;;;2.27;;
50759;SDS011;36733;48.442;-4.470;2023-07-22T00:13:00;4.90;;;2.57;;
50759;SDS011;36733;48.442;-4.470;2023-07-22T00:15:26;7.00;;;2.63;;
50759;SDS011;36733;48.442;-4.470;2023-07-22T00:17:51;7.17;;;2.43;;
50759;SDS011;36733;48.442;-4.470;2023-07-22T00:20:17;3.63;;;2.30;;
50759;SDS011;36733;48.442;-4.470;2023-07-22T00:22:43;5.18;;;2.72;;
50759;SDS011;36733;48.442;-4.470;2023-07-22T00:25:09;4.53;;;2.47;;
50759;SDS011;36733;48.442;-4.470;2023-07-22T00:27:36;4.22;;;2.20;;
50759;SDS011;36733;48.442;-4.470;2023-07-22T00:30:03;4.07;;;2.13;;
50759;SDS011;36733;48.442;-4.470;2023-07-22T00:32:29;4.45;;;2.40;;
50759;SDS011;36733;48.442;-4.470;2023-07-22T00:34:55;4.40;;;2.83;;
50759;SDS011;36733;48.442;-4.470;2023-07-22T00:37:20;3.27;;;2.20;;
50759;SDS011;36733;48.442;-4.470;2023-07-22T00:39:46;4.30;;;2.40;;
50759;SDS011;36733;48.442;-4.470;2023-07-22T00:42:11;4.07;;;2.23;;
50759;SDS011;36733;48.442;-4.470;2023-07-22T00:44:37;2.67;;;1.77;;
50759;SDS011;36733;48.442;-4.470;2023-07-22T00:47:02;3.30;;;2.33;;
50759;SDS011;36733;48.442;-4.470;2023-07-22T00:49:28;3.88;;;1.95;;
50759;SDS011;36733;48.442;-4.470;2023-07-22T00:51:56;7.88;;;2.28;;
50759;SDS011;36733;48.442;-4.470;2023-07-22T00:54:26;8.05;;;2.28;;
50759;SDS011;36733;48.442;-4.470;2023-07-22T00:56:51;4.70;;;2.37;;
50759;SDS011;36733;48.442;-4.470;2023-07-22T01:01:43;4.78;;;2.50;;
50759;SDS011;36733;48.442;-4.470;2023-07-22T01:04:09;3.63;;;2.30;;
50759;SDS011;36733;48.442;-4.470;2023-07-22T01:06:35;8.93;;;2.45;;
50759;SDS011;36733;48.442;-4.470;2023-07-22T01:09:01;3.20;;;1.90;;
50759;SDS011;36733;48.442;-4.470;2023-07-22T01:11:28;5.53;;;2.15;;
50759;SDS011;36733;48.442;-4.470;2023-07-22T01:13:53;5.13;;;1.87;;
50759;SDS011;36733;48.442;-4.470;2023-07-22T01:16:23;3.83;;;1.80;;
50759;SDS011;36733;48.442;-4.470;2023-07-22T01:18:50;6.78;;;2.20;;
50759;SDS011;36733;48.442;-4.470;2023-07-22T01:21:16;5.03;;;1.98;;
50759;SDS011;36733;48.442;-4.470;2023-07-22T01:23:41;3.30;;;2.00;;
50759;SDS011;36733;48.442;-4.470;2023-07-22T01:26:07;5.53;;;1.98;;
50759;SDS011;36733;48.442;-4.470;2023-07-22T01:28:34;4.03;;;1.80;;
50759;SDS011;36733;48.442;-4.470;2023-07-22T01:31:00;5.20;;;1.70;;
50759;SDS011;36733;48.442;-4.470;2023-07-22T01:33:26;4.17;;;1.80;;
50759;SDS011;36733;48.442;-4.470;2023-07-22T01:35:52;3.60;;;1.48;;
50759;SDS011;36733;48.442;-4.470;2023-07-22T01:38:18;3.25;;;2.00;;
50759;SDS011;36733;48.442;-4.470;2023-07-22T01:40:44;5.10;;;1.95;;
50759;SDS011;36733;48.442;-4.470;2023-07-22T01:43:09;2.57;;;1.70;;
50759;SDS011;36733;48.442;-4.470;2023-07-22T01:45:35;4.17;;;2.00;;
50759;SDS011;36733;48.442;-4.470;2023-07-22T01:48:00;5.30;;;2.40;;
50759;SDS011;36733;48.442;-4.470;2023-07-22T01:50:26;2.97;;;1.60;;
50759;SDS011;36733;48.442;-4.470;2023-07-22T01:52:51;3.00;;;1.90;;
50759;SDS011;36733;48.442;-4.470;2023-07-22T01:55:17;3.10;;;1.67;;
50759;SDS011;36733;48.442;-4.470;2023-07-22T01:57:43;4.45;;;2.17;;
50759;SDS011;36733;48.442;-4.470;2023-07-22T02:00:09;3.70;;;1.80;;
50759;SDS011;36733;48.442;-4.470;2023-07-22T02:02:36;4.38;;;1.70;;
50759;SDS011;36733;48.442;-4.470;2023-07-22T02:05:01;2.55;;;1.48;;
50759;SDS011;36733;48.442;-4.470;2023-07-22T02:07:27;4.73;;;1.70;;
50759;SDS011;36733;48.442;-4.470;2023-07-22T02:12:19;3.13;;;1.33;;
50759;SDS011;36733;48.442;-4.470;2023-07-22T02:14:44;3.47;;;1.47;;
50759;SDS011;36733;48.442;-4.470;2023-07-22T02:17:10;5.63;;;1.70;;
50759;SDS011;36733;48.442;-4.470;2023-07-22T02:19:35;3.27;;;1.57;;
50759;SDS011;36733;48.442;-4.470;2023-07-22T02:22:02;4.70;;;1.80;;
50759;SDS011;36733;48.442;-4.470;2023-07-22T02:24:29;2.45;;;1.38;;
50759;SDS011;36733;48.442;-4.470;2023-07-22T02:26:54;4.27;;;2.23;;
50759;SDS011;36733;48.442;-4.470;2023-07-22T02:29:20;2.63;;;1.63;;
50759;SDS011;36733;48.442;-4.470;2023-07-22T02:31:45;3.97;;;1.83;;
50759;SDS011;36733;48.442;-4.470;2023-07-22T02:34:11;3.78;;;1.80;;
50759;SDS011;36733;48.442;-4.470;2023-07-22T02:36:37;5.97;;;1.67;;
50759;SDS011;36733;48.442;-4.470;2023-07-22T02:39:02;3.73;;;1.77;;
50759;SDS011;36733;48.442;-4.470;2023-07-22T02:41:28;3.35;;;1.70;;
50759;SDS011;36733;48.442;-4.470;2023-07-22T02:43:54;3.10;;;1.87;;
50759;SDS011;36733;48.442;-4.470;2023-07-22T02:46:19;3.77;;;2.30;;
50759;SDS011;36733;48.442;-4.470;2023-07-22T02:48:44;3.20;;;2.07;;
50759;SDS011;36733;48.442;-4.470;2023-07-22T02:51:10;3.90;;;2.00;;
50759;SDS011;36733;48.442;-4.470;2023-07-22T02:53:36;4.63;;;2.00;;
50759;SDS011;36733;48.442;-4.470;2023-07-22T02:56:02;3.85;;;2.13;;
50759;SDS011;36733;48.442;-4.470;2023-07-22T02:58:28;5.97;;;2.20;;
50759;SDS011;36733;48.442;-4.470;2023-07-22T03:00:53;5.30;;;2.50;;
50759;SDS011;36733;48.442;-4.470;2023-07-22T03:03:18;3.23;;;2.10;;
50759;SDS011;36733;48.442;-4.470;2023-07-22T03:05:44;3.60;;;2.73;;
50759;SDS011;36733;48.442;-4.470;2023-07-22T03:08:10;3.80;;;2.70;;
50759;SDS011;36733;48.442;-4.470;2023-07-22T03:10:35;4.53;;;2.97;;
50759;SDS011;36733;48.442;-4.470;2023-07-22T03:13:01;4.50;;;2.80;;
50759;SDS011;36733;48.442;-4.470;2023-07-22T03:15:27;4.43;;;2.80;;
50759;SDS011;36733;48.442;-4.470;2023-07-22T03:17:53;4.03;;;2.50;;
50759;SDS011;36733;48.442;-4.470;2023-07-22T03:20:20;9.88;;;2.90;;
50759;SDS011;36733;48.442;-4.470;2023-07-22T03:22:47;3.38;;;2.25;;
50759;SDS011;36733;48.442;-4.470;2023-07-22T03:25:13;3.37;;;2.53;;
50759;SDS011;36733;48.442;-4.470;2023-07-22T03:27:41;4.97;;;2.90;;
50759;SDS011;36733;48.442;-4.470;2023-07-22T03:30:07;5.15;;;2.60;;
50759;SDS011;36733;48.442;-4.470;2023-07-22T03:32:33;3.58;;;2.72;;
50759;SDS011;36733;48.442;-4.470;2023-07-22T03:34:59;5.38;;;3.50;;
50759;SDS011;36733;48.442;-4.470;2023-07-22T03:37:25;4.38;;;3.15;;
50759;SDS011;36733;48.442;-4.470;2023-07-22T03:39:50;4.83;;;3.50;;
50759;SDS011;36733;48.442;-4.470;2023-07-22T03:42:16;5.23;;;3.73;;
50759;SDS011;36733;48.442;-4.470;2023-07-22T03:44:41;6.30;;;4.17;;
50759;SDS011;36733;48.442;-4.470;2023-07-22T03:47:07;6.57;;;3.67;;
50759;SDS011;36733;48.442;-4.470;2023-07-22T03:49:32;6.50;;;4.27;;
50759;SDS011;36733;48.442;-4.470;2023-07-22T03:51:58;5.67;;;4.10;;
50759;SDS011;36733;48.442;-4.470;2023-07-22T03:54:23;7.03;;;3.93;;
50759;SDS011;36733;48.442;-4.470;2023-07-22T03:56:48;5.97;;;4.50;;
50759;SDS011;36733;48.442;-4.470;2023-07-22T03:59:14;8.93;;;4.73;;
50759;SDS011;36733;48.442;-4.470;2023-07-22T04:01:39;4.90;;;4.23;;
50759;SDS011;36733;48.442;-4.470;2023-07-22T04:04:05;6.77;;;4.43;;
50759;SDS011;36733;48.442;-4.470;2023-07-22T04:06:30;5.47;;;4.50;;
50759;SDS011;36733;48.442;-4.470;2023-07-22T04:08:56;7.17;;;4.47;;
50759;SDS011;36733;48.442;-4.470;2023-07-22T04:11:21;9.07;;;5.23;;
50759;SDS011;36733;48.442;-4.470;2023-07-22T04:13:46;8.57;;;4.00;;
50759;SDS011;36733;48.442;-4.470;2023-07-22T04:16:13;10.52;;;5.30;;
50759;SDS011;36733;48.442;-4.470;2023-07-22T04:18:39;9.40;;;5.67;;
50759;SDS011;36733;48.442;-4.470;2023-07-22T04:21:04;9.63;;;5.47;;
50759;SDS011;36733;48.442;-4.470;2023-07-22T04:23:30;5.63;;;4.83;;
50759;SDS011;36733;48.442;-4.470;2023-07-22T04:25:57;7.13;;;5.20;;
50759;SDS011;36733;48.442;-4.470;2023-07-22T04:28:23;8.67;;;5.63;;
50759;SDS011;36733;48.442;-4.470;2023-07-22T04:30:56;14.80;;;6.40;;
50759;SDS011;36733;48.442;-4.470;2023-07-22T04:33:23;9.50;;;6.68;;
50759;SDS011;36733;48.442;-4.470;2023-07-22T04:38:15;9.23;;;6.25;;
50759;SDS011;36733;48.442;-4.470;2023-07-22T04:40:43;10.33;;;6.70;;
50759;SDS011;36733;48.442;-4.470;2023-07-22T04:43:09;10.43;;;7.25;;
50759;SDS011;36733;48.442;-4.470;2023-07-22T04:45:35;11.23;;;6.67;;
50759;SDS011;36733;48.442;-4.470;2023-07-22T04:48:01;10.13;;;6.43;;
50759;SDS011;36733;48.442;-4.470;2023-07-22T04:50:26;11.73;;;7.82;;
50759;SDS011;36733;48.442;-4.470;2023-07-22T04:52:52;11.33;;;6.90;;
50759;SDS011;36733;48.442;-4.470;2023-07-22T04:55:17;8.17;;;6.47;;
50759;SDS011;36733;48.442;-4.470;2023-07-22T04:57:43;12.60;;;6.93;;
50759;SDS011;36733;48.442;-4.470;2023-07-22T05:00:13;12.25;;;7.85;;
50759;SDS011;36733;48.442;-4.470;2023-07-22T05:02:44;11.00;;;7.35;;
50759;SDS011;36733;48.442;-4.470;2023-07-22T05:05:10;9.70;;;6.30;;
50759;SDS011;36733;48.442;-4.470;2023-07-22T05:07:36;12.27;;;7.10;;
50759;SDS011;36733;48.442;-4.470;2023-07-22T05:10:02;11.00;;;7.33;;
50759;SDS011;36733;48.442;-4.470;2023-07-22T05:12:27;9.50;;;7.47;;
50759;SDS011;36733;48.442;-4.470;2023-07-22T05:14:53;9.43;;;7.30;;
50759;SDS011;36733;48.442;-4.470;2023-07-22T05:17:18;11.27;;;7.80;;
50759;SDS011;36733;48.442;-4.470;2023-07-22T05:19:44;9.07;;;6.53;;
50759;SDS011;36733;48.442;-4.470;2023-07-22T05:22:09;11.97;;;7.47;;
50759;SDS011;36733;48.442;-4.470;2023-07-22T05:24:35;9.50;;;6.80;;
50759;SDS011;36733;48.442;-4.470;2023-07-22T05:27:00;10.70;;;6.90;;
50759;SDS011;36733;48.442;-4.470;2023-07-22T05:29:25;11.83;;;7.53;;
50759;SDS011;36733;48.442;-4.470;2023-07-22T05:31:51;9.37;;;6.47;;
50759;SDS011;36733;48.442;-4.470;2023-07-22T05:34:16;9.80;;;6.47;;
50759;SDS011;36733;48.442;-4.470;2023-07-22T05:36:42;10.10;;;6.27;;
50759;SDS011;36733;48.442;-4.470;2023-07-22T05:39:07;9.07;;;6.00;;
50759;SDS011;36733;48.442;-4.470;2023-07-22T05:41:33;10.27;;;6.70;;
50759;SDS011;36733;48.442;-4.470;2023-07-22T05:43:58;8.95;;;6.10;;
50759;SDS011;36733;48.442;-4.470;2023-07-22T05:46:24;11.17;;;6.40;;
50759;SDS011;36733;48.442;-4.470;2023-07-22T05:48:49;12.63;;;6.53;;
50759;SDS011;36733;48.442;-4.470;2023-07-22T05:51:15;13.38;;;6.18;;
50759;SDS011;36733;48.442;-4.470;2023-07-22T05:53:41;9.73;;;6.22;;
50759;SDS011;36733;48.442;-4.470;2023-07-22T05:56:06;9.20;;;5.50;;
50759;SDS011;36733;48.442;-4.470;2023-07-22T05:58:32;7.77;;;5.23;;
50759;SDS011;36733;48.442;-4.470;2023-07-22T06:00:57;11.93;;;5.83;;
50759;SDS011;36733;48.442;-4.470;2023-07-22T06:03:23;8.17;;;5.07;;
50759;SDS011;36733;48.442;-4.470;2023-07-22T06:05:48;10.87;;;5.73;;
50759;SDS011;36733;48.442;-4.470;2023-07-22T06:08:14;8.87;;;5.83;;
50759;SDS011;36733;48.442;-4.470;2023-07-22T06:10:42;11.60;;;5.43;;
50759;SDS011;36733;48.442;-4.470;2023-07-22T06:13:08;9.68;;;4.97;;
50759;SDS011;36733;48.442;-4.470;2023-07-22T06:15:33;9.47;;;5.87;;
50759;SDS011;36733;48.442;-4.470;2023-07-22T06:17:59;11.07;;;6.25;;
50759;SDS011;36733;48.442;-4.470;2023-07-22T06:20:25;8.73;;;5.00;;
50759;SDS011;36733;48.442;-4.470;2023-07-22T06:22:51;7.78;;;5.25;;
50759;SDS011;36733;48.442;-4.470;2023-07-22T06:25:16;8.77;;;5.10;;
50759;SDS011;36733;48.442;-4.470;2023-07-22T06:27:42;11.43;;;5.10;;
50759;SDS011;36733;48.442;-4.470;2023-07-22T06:30:07;7.55;;;4.43;;
50759;SDS011;36733;48.442;-4.470;2023-07-22T06:32:34;10.30;;;4.18;;
50759;SDS011;36733;48.442;-4.470;2023-07-22T06:35:01;9.45;;;4.80;;
50759;SDS011;36733;48.442;-4.470;2023-07-22T06:37:28;6.82;;;4.30;;
50759;SDS011;36733;48.442;-4.470;2023-07-22T06:39:53;6.38;;;4.68;;
50759;SDS011;36733;48.442;-4.470;2023-07-22T06:42:19;10.17;;;4.77;;
50759;SDS011;36733;48.442;-4.470;2023-07-22T06:44:44;7.67;;;4.87;;
50759;SDS011;36733;48.442;-4.470;2023-07-22T06:47:10;12.47;;;5.60;;
50759;SDS011;36733;48.442;-4.470;2023-07-22T06:49:35;8.60;;;4.23;;
50759;SDS011;36733;48.442;-4.470;2023-07-22T06:52:00;9.10;;;5.47;;
50759;SDS011;36733;48.442;-4.470;2023-07-22T06:54:27;13.50;;;5.05;;
50759;SDS011;36733;48.442;-4.470;2023-07-22T06:56:53;8.90;;;4.95;;
50759;SDS011;36733;48.442;-4.470;2023-07-22T06:59:18;6.87;;;5.37;;
50759;SDS011;36733;48.442;-4.470;2023-07-22T07:01:43;8.80;;;4.80;;
50759;SDS011;36733;48.442;-4.470;2023-07-22T07:04:09;10.63;;;5.30;;
50759;SDS011;36733;48.442;-4.470;2023-07-22T07:06:35;9.83;;;5.43;;
50759;SDS011;36733;48.442;-4.470;2023-07-22T07:09:01;9.43;;;5.35;;
50759;SDS011;36733;48.442;-4.470;2023-07-22T07:11:28;8.60;;;5.82;;
50759;SDS011;36733;48.442;-4.470;2023-07-22T07:13:53;8.98;;;5.93;;
50759;SDS011;36733;48.442;-4.470;2023-07-22T07:16:26;8.43;;;5.57;;
50759;SDS011;36733;48.442;-4.470;2023-07-22T07:18:52;11.32;;;6.38;;
50759;SDS011;36733;48.442;-4.470;2023-07-22T07:21:18;8.25;;;6.40;;
50759;SDS011;36733;48.442;-4.470;2023-07-22T07:23:44;12.43;;;6.13;;
50759;SDS011;36733;48.442;-4.470;2023-07-22T07:26:10;10.48;;;6.53;;
50759;SDS011;36733;48.442;-4.470;2023-07-22T07:28:36;13.23;;;6.53;;
50759;SDS011;36733;48.442;-4.470;2023-07-22T07:31:01;13.38;;;7.20;;
50759;SDS011;36733;48.442;-4.470;2023-07-22T07:33:27;9.93;;;6.63;;
50759;SDS011;36733;48.442;-4.470;2023-07-22T07:35:53;11.23;;;6.68;;
50759;SDS011;36733;48.442;-4.470;2023-07-22T07:38:18;9.93;;;6.90;;
50759;SDS011;36733;48.442;-4.470;2023-07-22T07:40:43;10.83;;;6.60;;
50759;SDS011;36733;48.442;-4.470;2023-07-22T07:43:09;13.97;;;7.30;;
50759;SDS011;36733;48.442;-4.470;2023-07-22T07:45:39;12.57;;;7.40;;
50759;SDS011;36733;48.442;-4.470;2023-07-22T07:48:05;9.27;;;6.40;;
50759;SDS011;36733;48.442;-4.470;2023-07-22T07:50:30;10.20;;;6.82;;
50759;SDS011;36733;48.442;-4.470;2023-07-22T07:52:57;13.10;;;6.63;;
50759;SDS011;36733;48.442;-4.470;2023-07-22T07:55:22;8.87;;;5.90;;
50759;SDS011;36733;48.442;-4.470;2023-07-22T07:57:48;12.20;;;7.20;;
50759;SDS011;36733;48.442;-4.470;2023-07-22T08:00:13;10.33;;;6.67;;
50759;SDS011;36733;48.442;-4.470;2023-07-22T08:02:39;7.07;;;5.15;;
50759;SDS011;36733;48.442;-4.470;2023-07-22T08:05:04;9.20;;;5.53;;
50759;SDS011;36733;48.442;-4.470;2023-07-22T08:07:30;13.65;;;6.25;;
50759;SDS011;36733;48.442;-4.470;2023-07-22T08:09:56;9.47;;;6.03;;
50759;SDS011;36733;48.442;-4.470;2023-07-22T08:12:23;12.48;;;5.75;;
50759;SDS011;36733;48.442;-4.470;2023-07-22T08:14:48;9.47;;;6.00;;
50759;SDS011;36733;48.442;-4.470;2023-07-22T08:17:13;10.10;;;6.17;;
50759;SDS011;36733;48.442;-4.470;2023-07-22T08:19:39;9.63;;;6.60;;
50759;SDS011;36733;48.442;-4.470;2023-07-22T08:22:04;10.50;;;5.93;;
50759;SDS011;36733;48.442;-4.470;2023-07-22T08:26:56;8.88;;;6.40;;
50759;SDS011;36733;48.442;-4.470;2023-07-22T08:29:21;10.03;;;6.77;;
50759;SDS011;36733;48.442;-4.470;2023-07-22T08:31:47;13.23;;;7.37;;
50759;SDS011;36733;48.442;-4.470;2023-07-22T08:34:12;9.47;;;7.03;;
50759;SDS011;36733;48.442;-4.470;2023-07-22T08:36:37;13.33;;;7.50;;
50759;SDS011;36733;48.442;-4.470;2023-07-22T08:39:03;8.40;;;6.83;;
50759;SDS011;36733;48.442;-4.470;2023-07-22T08:41:29;8.75;;;7.32;;
50759;SDS011;36733;48.442;-4.470;2023-07-22T08:43:55;12.40;;;8.25;;
50759;SDS011;36733;48.442;-4.470;2023-07-22T08:48:47;13.98;;;8.70;;
50759;SDS011;36733;48.442;-4.470;2023-07-22T08:51:17;15.05;;;9.20;;
50759;SDS011;36733;48.442;-4.470;2023-07-22T08:53:45;15.07;;;9.13;;
50759;SDS011;36733;48.442;-4.470;2023-07-22T08:56:11;10.18;;;7.65;;
50759;SDS011;36733;48.442;-4.470;2023-07-22T08:58:37;10.45;;;8.45;;
50759;SDS011;36733;48.442;-4.470;2023-07-22T09:01:03;16.77;;;7.60;;
50759;SDS011;36733;48.442;-4.470;2023-07-22T09:03:28;9.73;;;8.13;;
50759;SDS011;36733;48.442;-4.470;2023-07-22T09:05:54;13.53;;;8.77;;
50759;SDS011;36733;48.442;-4.470;2023-07-22T09:08:20;12.60;;;9.98;;
50759;SDS011;36733;48.442;-4.470;2023-07-22T09:10:46;13.43;;;9.48;;
50759;SDS011;36733;48.442;-4.470;2023-07-22T09:13:12;11.05;;;9.32;;
50759;SDS011;36733;48.442;-4.470;2023-07-22T09:15:39;11.20;;;9.15;;
50759;SDS011;36733;48.442;-4.470;2023-07-22T09:18:05;9.43;;;8.45;;
50759;SDS011;36733;48.442;-4.470;2023-07-22T09:22:57;10.55;;;8.77;;
50759;SDS011;36733;48.442;-4.470;2023-07-22T09:25:25;11.20;;;8.40;;
50759;SDS011;36733;48.442;-4.470;2023-07-22T09:27:53;9.90;;;8.45;;
50759;SDS011;36733;48.442;-4.470;2023-07-22T09:32:59;10.93;;;8.55;;
50759;SDS011;36733;48.442;-4.470;2023-07-22T09:35:26;13.23;;;9.05;;
50759;SDS011;36733;48.442;-4.470;2023-07-22T09:37:56;9.57;;;8.30;;
50759;SDS011;36733;48.442;-4.470;2023-07-22T09:40:25;11.27;;;8.90;;
50759;SDS011;36733;48.442;-4.470;2023-07-22T09:42:52;10.90;;;8.68;;
50759;SDS011;36733;48.442;-4.470;2023-07-22T09:45:22;9.20;;;8.32;;
50759;SDS011;36733;48.442;-4.470;2023-07-22T09:47:49;13.02;;;8.75;;
50759;SDS011;36733;48.442;-4.470;2023-07-22T09:50:16;10.73;;;8.05;;
50759;SDS011;36733;48.442;-4.470;2023-07-22T09:52:46;10.63;;;8.25;;
50759;SDS011;36733;48.442;-4.470;2023-07-22T09:55:20;9.30;;;7.85;;
50759;SDS011;36733;48.442;-4.470;2023-07-22T09:57:49;10.23;;;7.85;;
50759;SDS011;36733;48.442;-4.470;2023-07-22T10:00:17;10.40;;;7.72;;
50759;SDS011;36733;48.442;-4.470;2023-07-22T10:02:49;10.32;;;7.63;;
50759;SDS011;36733;48.442;-4.470;2023-07-22T10:05:16;10.18;;;7.55;;
50759;SDS011;36733;48.442;-4.470;2023-07-22T10:07:46;11.07;;;7.10;;
50759;SDS011;36733;48.442;-4.470;2023-07-22T10:10:12;9.13;;;6.93;;
50759;SDS011;36733;48.442;-4.470;2023-07-22T10:12:39;9.90;;;7.18;;
50759;SDS011;36733;48.442;-4.470;2023-07-22T10:15:06;7.82;;;6.88;;
50759;SDS011;36733;48.442;-4.470;2023-07-22T10:17:32;8.38;;;7.10;;
50759;SDS011;36733;48.442;-4.470;2023-07-22T10:19:58;7.55;;;6.75;;
50759;SDS011;36733;48.442;-4.470;2023-07-22T10:22:24;8.05;;;7.22;;
50759;SDS011;36733;48.442;-4.470;2023-07-22T10:24:49;9.05;;;6.82;;
50759;SDS011;36733;48.442;-4.470;2023-07-22T10:27:15;16.33;;;7.82;;
50759;SDS011;36733;48.442;-4.470;2023-07-22T10:29:42;11.35;;;7.60;;
50759;SDS011;36733;48.442;-4.470;2023-07-22T10:32:10;8.77;;;7.43;;
50759;SDS011;36733;48.442;-4.470;2023-07-22T10:34:35;8.98;;;7.20;;
50759;SDS011;36733;48.442;-4.470;2023-07-22T10:37:01;8.00;;;6.47;;
50759;SDS011;36733;48.442;-4.470;2023-07-22T10:39:27;7.45;;;6.60;;
50759;SDS011;36733;48.442;-4.470;2023-07-22T10:42:02;11.07;;;7.45;;
50759;SDS011;36733;48.442;-4.470;2023-07-22T10:44:33;10.18;;;6.90;;
50759;SDS011;36733;48.442;-4.470;2023-07-22T10:47:00;10.30;;;7.43;;
50759;SDS011;36733;48.442;-4.470;2023-07-22T10:49:28;14.13;;;7.32;;
50759;SDS011;36733;48.442;-4.470;2023-07-22T10:52:09;11.45;;;6.70;;
50759;SDS011;36733;48.442;-4.470;2023-07-22T10:54:36;8.40;;;6.40;;
50759;SDS011;36733;48.442;-4.470;2023-07-22T10:59:28;9.05;;;6.30;;
50759;SDS011;36733;48.442;-4.470;2023-07-22T11:01:58;11.00;;;6.53;;
50759;SDS011;36733;48.442;-4.470;2023-07-22T11:07:02;8.00;;;5.40;;
50759;SDS011;36733;48.442;-4.470;2023-07-22T11:14:25;6.90;;;4.93;;
50759;SDS011;36733;48.442;-4.470;2023-07-22T11:16:52;14.93;;;5.53;;
50759;SDS011;36733;48.442;-4.470;2023-07-22T11:21:46;6.80;;;4.55;;
50759;SDS011;36733;48.442;-4.470;2023-07-22T11:24:13;9.13;;;4.55;;
50759;SDS011;36733;48.442;-4.470;2023-07-22T11:26:39;9.18;;;4.45;;
50759;SDS011;36733;48.442;-4.470;2023-07-22T11:29:06;9.23;;;4.63;;
50759;SDS011;36733;48.442;-4.470;2023-07-22T11:31:35;11.55;;;4.70;;
50759;SDS011;36733;48.442;-4.470;2023-07-22T11:34:02;6.80;;;4.30;;
50759;SDS011;36733;48.442;-4.470;2023-07-22T11:36:28;16.90;;;4.85;;
50759;SDS011;36733;48.442;-4.470;2023-07-22T11:38:54;6.93;;;4.05;;
50759;SDS011;36733;48.442;-4.470;2023-07-22T11:41:27;7.13;;;3.33;;
50759;SDS011;36733;48.442;-4.470;2023-07-22T11:43:52;4.32;;;2.85;;
50759;SDS011;36733;48.442;-4.470;2023-07-22T11:46:17;7.38;;;3.58;;
50759;SDS011;36733;48.442;-4.470;2023-07-22T11:48:53;5.85;;;3.28;;
50759;SDS011;36733;48.442;-4.470;2023-07-22T11:51:19;9.20;;;3.50;;
50759;SDS011;36733;48.442;-4.470;2023-07-22T11:53:46;7.32;;;3.22;;
50759;SDS011;36733;48.442;-4.470;2023-07-22T11:56:17;7.60;;;3.20;;
50759;SDS011;36733;48.442;-4.470;2023-07-22T11:58:50;7.25;;;3.20;;
50759;SDS011;36733;48.442;-4.470;2023-07-22T12:01:16;8.07;;;3.42;;
50759;SDS011;36733;48.442;-4.470;2023-07-22T12:03:41;9.13;;;3.58;;
50759;SDS011;36733;48.442;-4.470;2023-07-22T12:06:07;6.05;;;3.10;;
50759;SDS011;36733;48.442;-4.470;2023-07-22T12:08:33;7.28;;;3.33;;
50759;SDS011;36733;48.442;-4.470;2023-07-22T12:10:58;8.65;;;3.10;;
50759;SDS011;36733;48.442;-4.470;2023-07-22T12:13:24;8.15;;;3.67;;
50759;SDS011;36733;48.442;-4.470;2023-07-22T12:18:28;8.60;;;3.63;;
50759;SDS011;36733;48.442;-4.470;2023-07-22T12:23:18;7.60;;;4.05;;
50759;SDS011;36733;48.442;-4.470;2023-07-22T12:25:46;9.23;;;4.03;;
50759;SDS011;36733;48.442;-4.470;2023-07-22T12:28:12;11.27;;;4.13;;
50759;SDS011;36733;48.442;-4.470;2023-07-22T12:30:37;8.10;;;3.70;;
50759;SDS011;36733;48.442;-4.470;2023-07-22T12:33:03;10.05;;;4.30;;
50759;SDS011;36733;48.442;-4.470;2023-07-22T12:35:29;14.50;;;4.65;;
50759;SDS011;36733;48.442;-4.470;2023-07-22T12:37:54;10.85;;;4.57;;
50759;SDS011;36733;48.442;-4.470;2023-07-22T12:40:20;7.50;;;4.22;;
50759;SDS011;36733;48.442;-4.470;2023-07-22T12:42:45;9.45;;;4.07;;
50759;SDS011;36733;48.442;-4.470;2023-07-22T12:45:12;8.45;;;4.50;;
50759;SDS011;36733;48.442;-4.470;2023-07-22T12:50:03;11.68;;;4.30;;
50759;SDS011;36733;48.442;-4.470;2023-07-22T12:52:29;9.18;;;3.72;;
50759;SDS011;36733;48.442;-4.470;2023-07-22T12:54:54;12.00;;;4.30;;
50759;SDS011;36733;48.442;-4.470;2023-07-22T12:57:20;14.75;;;4.35;;
50759;SDS011;36733;48.442;-4.470;2023-07-22T12:59:46;8.77;;;3.53;;
50759;SDS011;36733;48.442;-4.470;2023-07-22T13:02:11;8.70;;;3.33;;
50759;SDS011;36733;48.442;-4.470;2023-07-22T13:04:36;8.67;;;3.50;;
50759;SDS011;36733;48.442;-4.470;2023-07-22T13:07:02;9.53;;;3.20;;
50759;SDS011;36733;48.442;-4.470;2023-07-22T13:11:53;9.57;;;3.63;;
50759;SDS011;36733;48.442;-4.470;2023-07-22T13:14:19;13.83;;;4.00;;
50759;SDS011;36733;48.442;-4.470;2023-07-22T13:16:44;11.83;;;3.73;;
50759;SDS011;36733;48.442;-4.470;2023-07-22T13:19:10;8.23;;;3.40;;
50759;SDS011;36733;48.442;-4.470;2023-07-22T13:21:35;10.73;;;4.10;;
50759;SDS011;36733;48.442;-4.470;2023-07-22T13:24:01;13.50;;;3.20;;
50759;SDS011;36733;48.442;-4.470;2023-07-22T13:26:26;14.35;;;3.83;;
50759;SDS011;36733;48.442;-4.470;2023-07-22T13:28:52;15.13;;;3.40;;
50759;SDS011;36733;48.442;-4.470;2023-07-22T13:31:17;13.90;;;4.10;;
50759;SDS011;36733;48.442;-4.470;2023-07-22T13:33:44;8.40;;;3.72;;
50759;SDS011;36733;48.442;-4.470;2023-07-22T13:36:09;15.93;;;4.17;;
50759;SDS011;36733;48.442;-4.470;2023-07-22T13:38:34;15.30;;;4.20;;
50759;SDS011;36733;48.442;-4.470;2023-07-22T13:41:00;10.70;;;3.60;;
50759;SDS011;36733;48.442;-4.470;2023-07-22T13:43:25;14.63;;;4.03;;
50759;SDS011;36733;48.442;-4.470;2023-07-22T13:45:52;13.55;;;3.90;;
50759;SDS011;36733;48.442;-4.470;2023-07-22T13:48:17;12.33;;;3.90;;
50759;SDS011;36733;48.442;-4.470;2023-07-22T13:50:43;10.27;;;4.10;;
50759;SDS011;36733;48.442;-4.470;2023-07-22T13:53:08;13.47;;;3.80;;
50759;SDS011;36733;48.442;-4.470;2023-07-22T13:55:33;13.80;;;4.20;;
50759;SDS011;36733;48.442;-4.470;2023-07-22T13:57:59;9.87;;;3.90;;
50759;SDS011;36733;48.442;-4.470;2023-07-22T14:00:24;13.23;;;3.80;;
50759;SDS011;36733;48.442;-4.470;2023-07-22T14:02:50;11.50;;;4.10;;
50759;SDS011;36733;48.442;-4.470;2023-07-22T14:05:15;10.57;;;3.90;;
50759;SDS011;36733;48.442;-4.470;2023-07-22T14:07:40;11.17;;;3.77;;
50759;SDS011;36733;48.442;-4.470;2023-07-22T14:10:06;12.20;;;4.13;;
50759;SDS011;36733;48.442;-4.470;2023-07-22T14:12:33;11.30;;;4.13;;
50759;SDS011;36733;48.442;-4.470;2023-07-22T14:14:58;11.00;;;3.93;;
50759;SDS011;36733;48.442;-4.470;2023-07-22T14:17:24;12.67;;;3.90;;
50759;SDS011;36733;48.442;-4.470;2023-07-22T14:22:15;18.15;;;4.47;;
50759;SDS011;36733;48.442;-4.470;2023-07-22T14:24:41;13.13;;;4.23;;
50759;SDS011;36733;48.442;-4.470;2023-07-22T14:27:06;11.77;;;4.60;;
50759;SDS011;36733;48.442;-4.470;2023-07-22T14:29:32;14.27;;;4.32;;
50759;SDS011;36733;48.442;-4.470;2023-07-22T14:31:57;11.07;;;3.93;;
50759;SDS011;36733;48.442;-4.470;2023-07-22T14:34:23;15.15;;;4.90;;
50759;SDS011;36733;48.442;-4.470;2023-07-22T14:36:48;13.07;;;3.90;;
50759;SDS011;36733;48.442;-4.470;2023-07-22T14:41:40;16.25;;;4.20;;
50759;SDS011;36733;48.442;-4.470;2023-07-22T14:44:08;18.05;;;4.63;;
50759;SDS011;36733;48.442;-4.470;2023-07-22T14:46:33;10.35;;;4.10;;
50759;SDS011;36733;48.442;-4.470;2023-07-22T14:48:59;22.03;;;4.87;;
50759;SDS011;36733;48.442;-4.470;2023-07-22T14:51:24;15.53;;;4.20;;
50759;SDS011;36733;48.442;-4.470;2023-07-22T14:53:49;18.10;;;5.03;;
50759;SDS011;36733;48.442;-4.470;2023-07-22T14:58:41;29.10;;;5.63;;
50759;SDS011;36733;48.442;-4.470;2023-07-22T15:01:06;15.10;;;4.50;;
50759;SDS011;36733;48.442;-4.470;2023-07-22T15:03:34;19.85;;;5.25;;
50759;SDS011;36733;48.442;-4.470;2023-07-22T15:05:59;13.48;;;4.75;;
50759;SDS011;36733;48.442;-4.470;2023-07-22T15:08:25;13.25;;;4.88;;